createdAt,value
2022-09-07T00:01:54.960Z,100997.84
2022-09-07T00:04:22.677Z,101020.38
2022-09-07T00:06:50.429Z,101058.91
2022-09-07T00:09:18.100Z,101095.03
2022-09-07T00:11:46.516Z,101135.38
2022-09-07T00:14:14.364Z,101173.66
2022-09-07T00:16:42.274Z,101184.94
2022-09-07T00:19:11.382Z,101191.53
2022-09-07T00:21:39.117Z,101170.63
2022-09-07T00:24:07.096Z,101162.47
2022-09-07T00:26:35.189Z,101150.59
2022-09-07T00:29:04.508Z,101157.84
2022-09-07T00:31:32.848Z,101141.53
2022-09-07T00:34:01.945Z,101127.91
2022-09-07T00:36:31.293Z,101117.84
2022-09-07T00:38:59.618Z,101106.38
2022-09-07T00:41:27.381Z,101099.69
2022-09-07T00:43:56.860Z,101081.25
2022-09-07T00:46:26.666Z,101079.09
2022-09-07T00:48:58.166Z,101066.69
2022-09-07T00:51:28.950Z,101055.31
2022-09-07T00:54:00.897Z,101055.63
2022-09-07T00:56:32.637Z,101062.00
2022-09-07T00:59:00.585Z,101063.00
2022-09-07T01:01:28.517Z,101068.38
2022-09-07T01:03:58.531Z,101063.00
2022-09-07T01:06:29.004Z,101071.91
2022-09-07T01:09:02.604Z,101076.06
2022-09-07T01:11:32.365Z,101084.13
2022-09-07T01:13:59.981Z,101092.00
2022-09-07T01:16:37.806Z,101110.25
2022-09-07T01:19:21.753Z,101109.25
2022-09-07T01:21:59.623Z,101109.06
2022-09-07T01:24:39.889Z,101104.50
2022-09-07T01:27:52.146Z,101123.31
2022-09-07T01:30:23.147Z,101118.97
2022-09-07T01:33:01.916Z,101137.38
2022-09-07T01:35:35.202Z,101144.81
2022-09-07T01:38:07.859Z,101123.13
2022-09-07T01:40:42.046Z,101105.34
2022-09-07T01:43:13.216Z,101071.34
2022-09-07T01:45:44.049Z,101046.88
2022-09-07T01:48:15.980Z,101051.63
2022-09-07T01:50:48.006Z,101050.31
2022-09-07T01:53:17.746Z,101049.66
2022-09-07T01:55:48.102Z,101078.22
2022-09-07T01:58:19.622Z,101079.88
2022-09-07T02:00:52.216Z,101098.66
2022-09-07T02:03:23.925Z,101099.69
2022-09-07T02:05:58.402Z,101093.63
2022-09-07T02:08:28.704Z,101103.28
2022-09-07T02:11:00.534Z,101087.06
2022-09-07T02:13:32.306Z,101091.22
2022-09-07T02:16:03.172Z,101088.72
2022-09-07T02:18:34.578Z,101080.88
2022-09-07T02:21:04.065Z,101076.47
2022-09-07T02:23:35.025Z,101070.47
2022-09-07T02:26:04.948Z,101066.94
2022-09-07T02:28:35.341Z,101057.22
2022-09-07T02:31:04.551Z,101060.94
2022-09-07T02:33:32.713Z,101050.38
2022-09-07T02:36:01.716Z,101043.16
2022-09-07T02:38:29.508Z,101038.97
2022-09-07T02:40:59.355Z,101038.97
2022-09-07T02:43:27.632Z,101032.31
2022-09-07T02:46:10.250Z,101027.47
2022-09-07T02:48:45.112Z,101028.50
2022-09-07T02:51:16.915Z,101030.53
2022-09-07T02:53:54.624Z,101016.47
2022-09-07T02:56:33.448Z,101009.59
2022-09-07T02:59:06.581Z,101009.78
2022-09-07T03:01:38.096Z,101009.16
2022-09-07T03:04:09.128Z,101014.88
2022-09-07T03:06:40.716Z,101001.81
2022-09-07T03:09:11.560Z,101000.47
2022-09-07T03:11:39.252Z,101008.25
2022-09-07T03:14:18.143Z,101006.59
2022-09-07T03:16:48.100Z,101001.94
2022-09-07T03:19:15.749Z,100998.75
2022-09-07T03:21:43.569Z,100996.09
2022-09-07T03:24:11.266Z,100995.94
2022-09-07T03:26:41.822Z,101001.94
2022-09-07T03:29:09.530Z,101001.94
2022-09-07T03:31:38.581Z,101001.94
2022-09-07T03:34:07.977Z,100994.53
2022-09-07T03:36:36.012Z,100989.53
2022-09-07T03:39:04.341Z,100988.88
2022-09-07T03:41:32.017Z,100984.53
2022-09-07T03:44:03.857Z,100985.84
2022-09-07T03:46:31.609Z,100984.38
2022-09-07T03:48:59.290Z,100980.81
2022-09-07T03:51:28.512Z,100981.50
2022-09-07T03:53:56.330Z,100989.06
2022-09-07T03:56:25.813Z,100983.69
2022-09-07T03:58:54.990Z,100970.00
2022-09-07T04:01:24.136Z,100981.56
2022-09-07T04:03:52.461Z,100976.53
2022-09-07T04:06:20.628Z,100972.75
2022-09-07T04:08:49.633Z,100989.00
2022-09-07T04:11:18.753Z,100980.69
2022-09-07T04:13:46.873Z,100981.41
2022-09-07T04:16:17.103Z,100978.59
2022-09-07T04:18:44.869Z,100973.59
2022-09-07T04:21:12.726Z,100977.94
2022-09-07T04:23:40.431Z,100970.25
2022-09-07T04:26:15.005Z,100973.94
2022-09-07T04:28:42.737Z,100984.53
2022-09-07T04:31:10.506Z,100998.94
2022-09-07T04:33:38.352Z,100989.44
2022-09-07T04:36:06.266Z,100987.94
2022-09-07T04:38:33.998Z,100981.91
2022-09-07T04:41:02.490Z,100985.59
2022-09-07T04:43:31.639Z,100978.56
2022-09-07T04:45:59.584Z,100985.13
2022-09-07T04:48:27.492Z,100987.13
2022-09-07T04:50:55.126Z,100993.50
2022-09-07T04:53:22.784Z,100998.22
2022-09-07T04:55:50.489Z,101003.06
2022-09-07T04:58:18.199Z,100990.00
2022-09-07T05:00:47.351Z,100995.19
2022-09-07T05:03:15.047Z,100994.06
2022-09-07T05:05:42.677Z,100992.22
2022-09-07T05:08:10.335Z,100995.41
2022-09-07T05:10:38.072Z,101004.47
2022-09-07T05:13:05.865Z,100997.44
2022-09-07T05:15:33.740Z,100988.75
2022-09-07T05:18:03.715Z,100990.41
2022-09-07T05:20:31.410Z,100987.06
2022-09-07T05:22:59.544Z,100981.69
2022-09-07T05:25:29.014Z,100987.91
2022-09-07T05:27:56.826Z,100996.78
2022-09-07T05:33:13.606Z,100991.75
2022-09-07T05:35:41.214Z,100998.13
2022-09-07T05:38:08.896Z,100990.28
2022-09-07T05:40:40.577Z,100989.78
2022-09-07T05:43:09.930Z,100995.13
2022-09-07T05:45:37.657Z,100991.47
2022-09-07T05:48:05.438Z,100991.47
2022-09-07T05:50:34.480Z,100995.44
2022-09-07T05:53:02.315Z,101005.50
2022-09-07T05:55:32.142Z,101011.53
2022-09-07T05:57:59.796Z,101003.84
2022-09-07T06:00:27.666Z,100998.81
2022-09-07T06:02:55.673Z,101002.69
2022-09-07T06:05:23.452Z,101003.53
2022-09-07T06:07:53.097Z,101001.50
2022-09-07T06:13:08.534Z,101008.22
2022-09-07T06:15:36.190Z,101013.59
2022-09-07T06:18:03.848Z,101010.59
2022-09-07T06:20:31.589Z,101013.91
2022-09-07T06:23:01.209Z,101014.75
2022-09-07T06:25:28.825Z,101004.41
2022-09-07T06:27:56.542Z,101025.31
2022-09-07T06:30:25.283Z,101016.63
2022-09-07T06:32:52.991Z,101008.75
2022-09-07T06:35:20.474Z,101017.41
2022-09-07T06:37:48.170Z,101013.19
2022-09-07T06:40:17.282Z,101013.00
2022-09-07T06:42:44.751Z,101018.63
2022-09-07T06:45:12.874Z,101017.94
2022-09-07T06:47:40.808Z,101016.56
2022-09-07T06:50:09.872Z,101023.44
2022-09-07T06:55:29.039Z,101020.22
2022-09-07T06:57:56.789Z,101027.28
2022-09-07T07:00:24.554Z,101019.09
2022-09-07T07:02:52.321Z,101030.88
2022-09-07T07:05:19.855Z,101034.75
2022-09-07T07:07:47.461Z,101033.31
2022-09-07T07:10:15.222Z,101036.44
2022-09-07T07:15:11.300Z,101038.84
2022-09-07T07:17:38.982Z,101036.94
2022-09-07T07:20:07.605Z,101041.69
2022-09-07T07:22:50.724Z,101045.16
2022-09-07T07:25:18.419Z,101038.50
2022-09-07T07:27:47.986Z,101045.22
2022-09-07T07:30:16.488Z,101039.56
2022-09-07T07:32:45.139Z,101045.09
2022-09-07T07:35:12.939Z,101051.69
2022-09-07T07:37:40.410Z,101054.38
2022-09-07T07:40:17.561Z,101047.72
2022-09-07T07:42:48.803Z,101048.03
2022-09-07T07:48:04.587Z,101051.34
2022-09-07T07:50:33.165Z,101052.31
2022-09-07T07:55:49.714Z,101057.72
2022-09-07T07:58:19.053Z,101062.53
2022-09-07T08:00:55.867Z,101061.91
2022-09-07T08:03:25.162Z,101061.28
2022-09-07T08:05:53.771Z,101066.06
2022-09-07T08:08:22.018Z,101061.91
2022-09-07T08:10:49.955Z,101072.13
2022-09-07T08:13:19.156Z,101073.97
2022-09-07T08:15:47.069Z,101075.09
2022-09-07T08:18:14.863Z,101070.31
2022-09-07T08:20:42.454Z,101084.44
2022-09-07T08:23:10.658Z,101096.84
2022-09-07T08:25:38.277Z,101083.97
2022-09-07T08:28:05.828Z,101079.78
2022-09-07T08:30:35.085Z,101077.09
2022-09-07T08:33:02.803Z,101085.13
2022-09-07T08:35:30.318Z,101095.84
2022-09-07T08:37:57.787Z,101085.44
2022-09-07T08:40:25.632Z,101089.97
2022-09-07T08:42:58.942Z,101099.88
2022-09-07T08:45:27.530Z,101097.19
2022-09-07T08:47:56.384Z,101101.53
2022-09-07T08:50:25.269Z,101111.22
2022-09-07T08:52:53.463Z,101109.41
2022-09-07T08:55:22.144Z,101118.28
2022-09-07T08:57:50.653Z,101110.25
2022-09-07T09:00:18.899Z,101117.97
2022-09-07T09:04:27.510Z,101117.97
2022-09-07T09:06:59.351Z,101118.63
2022-09-07T09:09:29.309Z,101124.63
2022-09-07T09:11:58.456Z,101124.63
2022-09-07T09:14:28.306Z,101132.03
2022-09-07T09:16:56.342Z,101138.38
2022-09-07T09:19:31.784Z,101135.06
2022-09-07T09:22:02.277Z,101130.03
2022-09-07T09:24:30.133Z,101137.91
2022-09-07T09:26:57.676Z,101125.50
2022-09-07T09:29:25.087Z,101127.84
2022-09-07T09:31:53.488Z,101117.59
2022-09-07T09:34:25.492Z,101120.63
2022-09-07T09:36:56.736Z,101125.31
2022-09-07T09:39:31.805Z,101128.81
2022-09-07T09:42:00.136Z,101123.91
2022-09-07T09:44:28.306Z,101137.31
2022-09-07T09:49:45.478Z,101145.69
2022-09-07T09:52:39.077Z,101145.50
2022-09-07T09:55:33.292Z,101155.91
2022-09-07T10:01:21.265Z,101148.00
2022-09-07T10:06:18.015Z,101145.31
2022-09-07T10:08:52.288Z,101138.97
2022-09-07T10:11:19.853Z,101137.28
2022-09-07T10:13:55.354Z,101131.91
2022-09-07T10:16:32.861Z,101125.56
2022-09-07T10:19:00.361Z,101126.56
2022-09-07T10:21:28.162Z,101125.91
2022-09-07T10:23:58.224Z,101123.88
2022-09-07T10:26:30.305Z,101111.63
2022-09-07T10:29:07.998Z,101116.09
2022-09-07T10:31:36.686Z,101110.88
2022-09-07T10:36:53.872Z,101111.16
2022-09-07T10:39:23.819Z,101107.06
2022-09-07T10:41:53.965Z,101109.44
2022-09-07T10:44:22.285Z,101101.50
2022-09-07T10:46:57.984Z,101098.75
2022-09-07T10:49:27.805Z,101091.97
2022-09-07T10:51:59.381Z,101092.38
2022-09-07T10:54:30.717Z,101095.34
2022-09-07T10:57:00.739Z,101095.84
2022-09-07T11:02:23.334Z,101087.06
2022-09-07T11:04:54.039Z,101090.00
2022-09-07T11:07:25.158Z,101087.63
2022-09-07T11:09:55.179Z,101085.25
2022-09-07T11:12:27.837Z,101092.53
2022-09-07T11:14:57.824Z,101085.59
2022-09-07T11:17:26.167Z,101082.72
2022-09-07T11:19:54.034Z,101084.03
2022-09-07T11:22:24.037Z,101082.66
2022-09-07T11:27:43.694Z,101081.59
2022-09-07T11:30:16.505Z,101081.22
2022-09-07T11:32:45.497Z,101084.53
2022-09-07T11:35:16.369Z,101088.63
2022-09-07T11:37:46.447Z,101089.13
2022-09-07T11:40:21.443Z,101089.19
2022-09-07T11:42:55.854Z,101089.03
2022-09-07T11:45:28.582Z,101091.72
2022-09-07T11:47:57.183Z,101094.34
2022-09-07T11:50:24.800Z,101104.06
2022-09-07T11:52:55.083Z,101106.22
2022-09-07T11:55:23.851Z,101098.91
2022-09-07T11:57:56.934Z,101099.91
2022-09-07T12:00:24.938Z,101089.19
2022-09-07T12:03:01.175Z,101096.22
2022-09-07T12:05:32.920Z,101091.03
2022-09-07T12:08:02.929Z,101092.88
2022-09-07T12:10:36.031Z,101092.06
2022-09-07T12:13:07.866Z,101095.56
2022-09-07T12:15:37.250Z,101097.88
2022-09-07T12:18:13.909Z,101085.16
2022-09-07T12:20:41.728Z,101089.06
2022-09-07T12:23:19.375Z,101085.53
2022-09-07T12:25:47.494Z,101082.72
2022-09-07T12:28:21.860Z,101090.59
2022-09-07T12:30:53.893Z,101078.81
2022-09-07T12:33:25.262Z,101078.47
2022-09-07T12:35:54.797Z,101078.66
2022-09-07T12:38:40.732Z,101069.09
2022-09-07T12:41:21.657Z,101073.19
2022-09-07T12:44:08.273Z,101070.63
2022-09-07T12:46:46.660Z,101069.50
2022-09-07T12:49:18.235Z,101066.34
2022-09-07T12:52:13.899Z,101068.03
2022-09-07T12:54:35.036Z,101062.28
2022-09-07T12:59:55.476Z,101058.72
2022-09-07T13:02:28.180Z,101051.19
2022-09-07T13:05:01.574Z,101053.94
2022-09-07T13:07:43.901Z,101050.22
2022-09-07T13:10:20.301Z,101046.69
2022-09-07T13:14:08.469Z,101048.38
2022-09-07T13:20:03.842Z,101041.94
2022-09-07T13:23:11.869Z,101045.34
2022-09-07T13:25:46.027Z,101039.13
2022-09-07T13:28:25.239Z,101042.06
2022-09-07T13:31:03.287Z,101028.41
2022-09-07T13:33:48.315Z,101029.25
2022-09-07T13:36:26.307Z,101042.94
2022-09-07T13:38:55.056Z,101030.75
2022-09-07T13:41:24.214Z,101031.22
2022-09-07T13:43:54.606Z,101019.44
2022-09-07T13:46:35.802Z,101023.88
2022-09-07T13:49:08.097Z,101024.53
2022-09-07T13:51:40.917Z,101021.03
2022-09-07T13:54:15.505Z,101015.44
2022-09-07T13:56:50.306Z,101017.09
2022-09-07T13:59:20.996Z,101005.06
2022-09-07T14:01:50.530Z,101012.75
2022-09-07T14:04:24.300Z,101005.50
2022-09-07T14:06:51.921Z,101005.94
2022-09-07T14:09:22.426Z,101003.88
2022-09-07T14:11:52.606Z,101005.97
2022-09-07T14:14:21.992Z,101012.22
2022-09-07T14:16:55.808Z,101010.53
2022-09-07T14:19:25.692Z,101006.84
2022-09-07T14:21:58.107Z,101013.91
2022-09-07T14:24:32.148Z,101010.16
2022-09-07T14:27:00.622Z,101013.09
2022-09-07T14:29:31.136Z,101001.47
2022-09-07T14:32:01.787Z,101010.38
2022-09-07T14:34:32.563Z,101014.34
2022-09-07T14:37:03.424Z,101014.34
2022-09-07T14:39:31.747Z,101002.69
2022-09-07T14:41:59.865Z,100998.97
2022-09-07T14:44:30.035Z,100993.97
2022-09-07T14:47:00.330Z,100996.88
2022-09-07T14:49:28.881Z,100992.13
2022-09-07T14:51:56.969Z,100987.94
2022-09-07T14:54:27.772Z,101000.59
2022-09-07T14:57:27.352Z,100990.19
2022-09-07T14:59:57.219Z,100993.94
2022-09-07T15:02:33.202Z,100983.34
2022-09-07T15:05:19.028Z,100993.09
2022-09-07T15:07:47.764Z,100990.16
2022-09-07T15:10:17.363Z,100985.81
2022-09-07T15:12:45.051Z,100990.59
2022-09-07T15:15:26.148Z,100992.66
2022-09-07T15:18:01.859Z,100996.41
2022-09-07T15:20:36.029Z,100998.06
2022-09-07T15:23:04.988Z,100995.97
2022-09-07T15:25:33.002Z,100983.09
2022-09-07T15:28:00.622Z,100995.16
2022-09-07T15:30:28.517Z,100982.50
2022-09-07T15:32:57.844Z,100985.00
2022-09-07T15:35:25.759Z,100974.81
2022-09-07T15:38:01.807Z,100981.25
2022-09-07T15:40:33.286Z,100978.38
2022-09-07T15:43:03.057Z,100980.63
2022-09-07T15:45:34.537Z,100979.38
2022-09-07T15:48:04.990Z,100972.75
2022-09-07T15:50:32.981Z,100976.47
2022-09-07T15:53:01.759Z,100972.94
2022-09-07T15:55:29.535Z,100988.09
2022-09-07T15:58:10.752Z,100974.16
2022-09-07T16:00:39.175Z,100973.97
2022-09-07T16:03:08.993Z,100981.66
2022-09-07T16:05:39.771Z,100982.69
2022-09-07T16:11:04.307Z,100974.59
2022-09-07T16:13:32.567Z,100972.94
2022-09-07T16:16:00.401Z,100973.56
2022-09-07T16:18:32.851Z,100967.34
2022-09-07T16:21:05.853Z,100966.50
2022-09-07T16:23:33.601Z,100962.34
2022-09-07T16:26:02.697Z,100954.84
2022-09-07T16:28:30.670Z,100968.97
2022-09-07T16:30:59.169Z,100958.19
2022-09-07T16:33:36.000Z,100963.56
2022-09-07T16:36:09.164Z,100951.34
2022-09-07T16:38:45.478Z,100948.44
2022-09-07T16:41:14.826Z,100939.72
2022-09-07T16:43:42.699Z,100940.34
2022-09-07T16:46:13.443Z,100937.66
2022-09-07T16:48:41.394Z,100931.22
2022-09-07T16:51:11.913Z,100933.91
2022-09-07T16:53:40.030Z,100927.47
2022-09-07T16:56:09.570Z,100928.94
2022-09-07T16:58:38.623Z,100934.13
2022-09-07T17:01:06.709Z,100937.44
2022-09-07T17:03:34.669Z,100933.91
2022-09-07T17:06:02.631Z,100942.00
2022-09-07T17:08:31.684Z,100941.59
2022-09-07T17:11:00.711Z,100927.06
2022-09-07T17:13:28.781Z,100932.88
2022-09-07T17:16:00.010Z,100943.47
2022-09-07T17:21:16.078Z,100946.78
2022-09-07T17:23:51.912Z,100941.38
2022-09-07T17:26:22.441Z,100946.16
2022-09-07T17:28:51.786Z,100940.75
2022-09-07T17:34:08.830Z,100945.09
2022-09-07T17:36:36.487Z,100943.66
2022-09-07T17:39:20.945Z,100942.00
2022-09-07T17:41:52.753Z,100946.13
2022-09-07T17:44:21.465Z,100947.75
2022-09-07T17:46:49.157Z,100939.88
2022-09-07T17:49:17.727Z,100943.00
2022-09-07T17:51:45.735Z,100940.66
2022-09-07T17:54:17.442Z,100941.91
2022-09-07T17:56:45.783Z,100932.75
2022-09-07T18:02:01.488Z,100936.91
2022-09-07T18:04:29.189Z,100937.28
2022-09-07T18:06:56.818Z,100942.06
2022-09-07T18:09:25.903Z,100930.66
2022-09-07T18:11:53.514Z,100938.31
2022-09-07T18:14:21.160Z,100938.94
2022-09-07T18:16:50.308Z,100942.66
2022-09-07T18:19:18.641Z,100932.47
2022-09-07T18:21:47.672Z,100936.41
2022-09-07T18:24:17.891Z,100936.78
2022-09-07T18:26:51.541Z,100935.53
2022-09-07T18:29:31.174Z,100929.72
2022-09-07T18:32:00.781Z,100944.22
2022-09-07T18:34:30.715Z,100936.75
2022-09-07T18:36:59.146Z,100935.06
2022-09-07T18:39:27.202Z,100932.56
2022-09-07T18:41:56.336Z,100923.88
2022-09-07T18:47:21.769Z,100929.00
2022-09-07T18:49:50.946Z,100927.75
2022-09-07T18:55:07.151Z,100916.72
2022-09-07T18:57:36.684Z,100916.28
2022-09-07T19:00:05.445Z,100907.97
2022-09-07T19:02:33.394Z,100909.63
2022-09-07T19:07:48.821Z,100918.13
2022-09-07T19:10:17.638Z,100919.97
2022-09-07T19:12:46.720Z,100909.59
2022-09-07T19:15:14.913Z,100908.56
2022-09-07T19:17:42.620Z,100904.19
2022-09-07T19:20:11.055Z,100914.16
2022-09-07T19:22:38.965Z,100915.19
2022-09-07T19:25:07.409Z,100915.19
2022-09-07T19:27:35.001Z,100922.63
2022-09-07T19:30:04.425Z,100925.31
2022-09-07T19:32:32.118Z,100924.69
2022-09-07T19:34:59.704Z,100918.66
2022-09-07T19:37:28.967Z,100923.41
2022-09-07T19:39:56.756Z,100929.00
2022-09-07T19:42:25.375Z,100929.00
2022-09-07T19:44:54.070Z,100927.72
2022-09-07T19:47:23.272Z,100928.53
2022-09-07T19:49:52.239Z,100933.03
2022-09-07T19:52:19.885Z,100933.44
2022-09-07T19:54:47.593Z,100933.84
2022-09-07T19:57:15.210Z,100928.84
2022-09-07T19:59:45.580Z,100923.88
2022-09-07T20:02:13.369Z,100920.72
2022-09-07T20:04:42.492Z,100920.91
2022-09-07T20:07:10.154Z,100922.16
2022-09-07T20:09:37.835Z,100915.28
2022-09-07T20:12:06.751Z,100908.91
2022-09-07T20:14:34.375Z,100912.59
2022-09-07T20:17:02.423Z,100917.97
2022-09-07T20:19:30.066Z,100905.56
2022-09-07T20:21:59.198Z,100900.56
2022-09-07T20:24:26.841Z,100904.66
2022-09-07T20:26:54.527Z,100897.81
2022-09-07T20:29:29.481Z,100900.72
2022-09-07T20:31:58.255Z,100896.38
2022-09-07T20:34:26.203Z,100904.63
2022-09-07T20:36:54.355Z,100888.50
2022-09-07T20:39:23.901Z,100885.81
2022-09-07T20:41:51.520Z,100887.59
2022-09-07T20:44:19.364Z,100886.97
2022-09-07T20:46:47.082Z,100886.34
2022-09-07T20:49:14.785Z,100890.06
2022-09-07T20:51:42.456Z,100873.94
2022-09-07T20:54:10.301Z,100881.38
2022-09-07T20:56:39.323Z,100873.69
2022-09-07T20:59:07.046Z,100877.59
2022-09-07T21:01:35.088Z,100877.59
2022-09-07T21:04:03.948Z,100882.13
2022-09-07T21:06:32.638Z,100875.09
2022-09-07T21:09:00.887Z,100878.78
2022-09-07T21:11:30.129Z,100878.78
2022-09-07T21:14:00.540Z,100878.16
2022-09-07T21:16:28.856Z,100872.16
2022-09-07T21:18:58.749Z,100873.38
2022-09-07T21:21:27.503Z,100869.16
2022-09-07T21:23:56.658Z,100882.41
2022-09-07T21:26:24.942Z,100880.28
2022-09-07T21:28:56.810Z,100882.53
2022-09-07T21:31:26.205Z,100876.50
2022-09-07T21:33:57.698Z,100877.16
2022-09-07T21:36:25.905Z,100881.88
2022-09-07T21:38:54.244Z,100875.69
2022-09-07T21:41:23.921Z,100869.41
2022-09-07T21:43:55.685Z,100874.59
2022-09-07T21:46:23.535Z,100877.66
2022-09-07T21:48:52.710Z,100885.09
2022-09-07T21:51:20.456Z,100875.75
2022-09-07T21:53:52.006Z,100874.47
2022-09-07T21:56:19.974Z,100873.81
2022-09-07T21:58:47.785Z,100866.78
2022-09-07T22:01:17.380Z,100870.50
2022-09-07T22:03:46.126Z,100873.38
2022-09-07T22:06:15.720Z,100874.59
2022-09-07T22:08:44.927Z,100882.00
2022-09-07T22:11:14.757Z,100870.41
2022-09-07T22:13:42.939Z,100868.94
2022-09-07T22:16:11.567Z,100864.59
2022-09-07T22:18:40.204Z,100861.28
2022-09-07T22:21:09.549Z,100862.31
2022-09-07T22:23:39.962Z,100860.97
2022-09-07T22:26:08.039Z,100862.38
2022-09-07T22:28:36.072Z,100858.22
2022-09-07T22:31:11.727Z,100861.09
2022-09-07T22:33:39.451Z,100858.13
2022-09-07T22:36:12.195Z,100851.50
2022-09-07T22:38:41.406Z,100849.19
2022-09-07T22:41:10.182Z,100841.50
2022-09-07T22:43:38.345Z,100838.19
2022-09-07T22:46:06.811Z,100838.19
2022-09-07T22:48:34.481Z,100828.19
2022-09-07T22:51:02.831Z,100841.63
2022-09-07T22:53:32.015Z,100839.28
2022-09-07T22:56:01.673Z,100836.44
2022-09-07T22:58:29.539Z,100832.72
2022-09-07T23:00:59.275Z,100833.09
2022-09-07T23:03:27.080Z,100830.59
2022-09-07T23:05:54.924Z,100827.09
2022-09-07T23:08:22.750Z,100828.94
2022-09-07T23:10:50.348Z,100838.03
2022-09-07T23:13:19.433Z,100831.00
2022-09-07T23:15:48.132Z,100825.00
2022-09-07T23:18:16.394Z,100825.53
2022-09-07T23:20:44.058Z,100825.94
2022-09-07T23:23:12.037Z,100820.09
2022-09-07T23:25:40.628Z,100818.41
2022-09-07T23:28:09.814Z,100813.88
2022-09-07T23:30:40.405Z,100807.31
2022-09-07T23:33:08.304Z,100794.53
2022-09-07T23:35:35.921Z,100784.44
2022-09-07T23:38:03.509Z,100783.81
2022-09-07T23:40:32.617Z,100778.25
2022-09-07T23:43:00.408Z,100785.47
2022-09-07T23:45:28.180Z,100783.81
2022-09-07T23:47:57.253Z,100785.81
2022-09-07T23:50:24.933Z,100786.84
2022-09-07T23:52:52.602Z,100786.22
2022-09-07T23:55:20.211Z,100789.09
2022-09-07T23:57:49.071Z,100779.19
